Time;durP1;ratioP1;P1;durP2;ratioP2;P2;SDS_P1;SDS_P2;PMS_P1;PMS_P2;Temp;Humidity;BMP_temperature;BMP_pressure;BME280_temperature;BME280_humidity;BME280_pressure;Samples;Min_cycle;Max_cycle;Signal;HPM_P1;HPM_P2
2022/05/04 00:01:22;;;;;;;;;;;15.20;94.70;;;;;;4347577;33;43038;-83
2022/05/04 00:03:53;;;;;;;;;;;15.20;94.70;;;;;;4333678;33;43920;-83
2022/05/04 00:06:27;;;;;;;;;;;15.20;94.70;;;;;;4347423;33;41889;-83
2022/05/04 00:08:54;;;;;;;;;;;15.20;94.70;;;;;;4347368;33;43307;-83
2022/05/04 00:11:23;;;;;;;;;;;15.10;94.70;;;;;;4333555;33;43956;-83
2022/05/04 00:13:56;;;;;;;;;;;15.10;94.70;;;;;;4346781;33;42734;-83
2022/05/04 00:16:28;;;;;;;;;;;15.10;94.70;;;;;;4333854;33;43571;-83
2022/05/04 00:19:01;;;;;;;;;;;15.10;94.80;;;;;;4333868;33;43618;-83
2022/05/04 00:21:28;;;;;;;;;;;15.10;94.80;;;;;;4348046;33;20009;-83
2022/05/04 00:23:58;;;;;;;;;;;15.10;94.80;;;;;;4333957;33;43443;-83
2022/05/04 00:26:30;;;;;;;;;;;15.00;95.10;;;;;;4346616;33;42085;-83
2022/05/04 00:28:59;;;;;;;;;;;15.10;94.80;;;;;;4346468;33;44076;-83
2022/05/04 00:31:26;;;;;;;;;;;15.00;94.80;;;;;;4333814;33;44792;-83
2022/05/04 00:33:59;;;;;;;;;;;15.00;94.80;;;;;;4346619;33;42432;-83
2022/05/04 00:36:37;;;;;;;;;;;15.00;94.90;;;;;;4346584;33;43538;-83
2022/05/04 00:39:07;;;;;;;;;;;15.00;94.90;;;;;;4346915;33;43372;-83
2022/05/04 00:41:36;;;;;;;;;;;14.90;94.90;;;;;;4346413;33;42676;-83
2022/05/04 00:44:07;;;;;;;;;;;14.90;94.80;;;;;;4346847;33;43882;-83
2022/05/04 00:46:40;;;;;;;;;;;14.90;94.80;;;;;;4346300;33;43924;-83
2022/05/04 00:49:15;;;;;;;;;;;14.90;94.80;;;;;;4346414;33;43680;-84
2022/05/04 00:51:45;;;;;;;;;;;14.90;94.80;;;;;;4333971;33;20406;-83
2022/05/04 00:54:20;;;;;;;;;;;14.90;94.80;;;;;;4333186;33;43930;-83
2022/05/04 00:56:52;;;;;;;;;;;14.90;94.80;;;;;;4346744;33;43526;-83
2022/05/04 00:59:25;;;;;;;;;;;14.90;94.80;;;;;;4346685;33;43319;-83
2022/05/04 01:01:52;;;;;;;;;;;14.80;94.90;;;;;;4346504;33;43363;-83
2022/05/04 01:04:23;;;;;;;;;;;14.80;94.80;;;;;;4333338;33;43437;-83
2022/05/04 01:06:55;;;;;;;;;;;14.80;94.80;;;;;;4332770;33;43931;-83
2022/05/04 01:09:34;;;;;;;;;;;14.80;94.70;;;;;;4333174;33;42702;-83
2022/05/04 01:12:04;;;;;;;;;;;14.80;94.80;;;;;;4346496;33;42976;-83
2022/05/04 01:14:36;;;;;;;;;;;14.80;94.80;;;;;;4333184;33;42903;-83
2022/05/04 01:17:12;;;;;;;;;;;14.70;94.80;;;;;;4333299;33;45723;-83
2022/05/04 01:19:42;;;;;;;;;;;14.80;94.80;;;;;;4332976;33;42489;-84
2022/05/04 01:22:15;;;;;;;;;;;14.70;94.70;;;;;;4333832;33;19994;-83
2022/05/04 01:24:42;;;;;;;;;;;14.70;94.80;;;;;;4346027;33;42041;-83
2022/05/04 01:27:17;;;;;;;;;;;14.70;94.80;;;;;;4345789;33;43664;-83
2022/05/04 01:29:52;;;;;;;;;;;14.70;94.80;;;;;;4346268;33;43444;-83
2022/05/04 01:32:23;;;;;;;;;;;14.60;94.80;;;;;;4333263;33;43011;-84
2022/05/04 01:34:55;;;;;;;;;;;14.60;94.80;;;;;;4346015;33;42385;-84
2022/05/04 01:37:25;;;;;;;;;;;14.60;94.80;;;;;;4346216;33;43923;-84
2022/05/04 01:39:57;;;;;;;;;;;14.60;94.80;;;;;;4345369;33;43818;-84
2022/05/04 01:42:33;;;;;;;;;;;14.60;94.70;;;;;;4332928;33;44220;-85
2022/05/04 01:45:07;;;;;;;;;;;14.50;94.70;;;;;;4345481;33;42861;-85
2022/05/04 01:47:38;;;;;;;;;;;14.60;94.80;;;;;;4332938;33;43007;-84
2022/05/04 01:50:05;;;;;;;;;;;14.50;94.70;;;;;;4345890;33;43323;-85
2022/05/04 01:52:40;;;;;;;;;;;14.50;94.70;;;;;;4332521;33;43052;-86
2022/05/04 01:55:13;;;;;;;;;;;14.50;94.70;;;;;;4345401;33;42737;-86
2022/05/04 01:57:46;;;;;;;;;;;14.50;94.70;;;;;;4345766;33;44212;-86
2022/05/04 02:00:19;;;;;;;;;;;14.50;94.70;;;;;;4345885;33;43464;-86
2022/05/04 02:02:52;;;;;;;;;;;14.40;94.60;;;;;;4345221;33;44108;-87
2022/05/04 02:05:22;;;;;;;;;;;14.40;94.50;;;;;;4345786;33;43923;-86
2022/05/04 02:07:52;;;;;;;;;;;14.40;94.60;;;;;;4345604;33;43861;-86
2022/05/04 02:10:28;;;;;;;;;;;14.40;94.60;;;;;;4345758;33;43133;-86
2022/05/04 02:13:08;;;;;;;;;;;14.30;94.50;;;;;;4345698;33;43320;-85
2022/05/04 02:15:41;;;;;;;;;;;14.30;94.50;;;;;;4345763;33;43581;-85
2022/05/04 02:18:10;;;;;;;;;;;14.20;94.50;;;;;;4345700;33;43946;-86
2022/05/04 02:20:43;;;;;;;;;;;14.30;94.60;;;;;;4345051;33;43478;-85
2022/05/04 02:23:16;;;;;;;;;;;14.20;94.60;;;;;;4346009;33;20005;-85
2022/05/04 02:25:43;;;;;;;;;;;14.20;94.70;;;;;;4345403;33;44168;-85
2022/05/04 02:28:19;;;;;;;;;;;14.20;94.70;;;;;;4331997;33;44170;-85
2022/05/04 02:30:52;;;;;;;;;;;14.20;94.80;;;;;;4345466;33;43973;-85
2022/05/04 02:33:25;;;;;;;;;;;14.20;94.80;;;;;;4345341;33;43552;-85
2022/05/04 02:38:48;;;;;;;;;;;14.10;95.10;;;;;;4345183;33;42213;-85
2022/05/04 02:41:21;;;;;;;;;;;14.10;94.70;;;;;;4345462;33;43499;-84
2022/05/04 02:43:48;;;;;;;;;;;14.10;94.70;;;;;;4345418;33;44274;-84
2022/05/04 02:46:23;;;;;;;;;;;14.10;94.60;;;;;;4345290;33;43921;-84
2022/05/04 02:48:52;;;;;;;;;;;14.10;94.50;;;;;;4345307;33;43549;-84
2022/05/04 02:51:27;;;;;;;;;;;14.10;94.40;;;;;;4345211;33;44223;-84
2022/05/04 02:54:03;;;;;;;;;;;14.00;94.50;;;;;;4335596;33;20430;-84
2022/05/04 02:56:39;;;;;;;;;;;14.00;94.50;;;;;;4335526;33;43580;-84
2022/05/04 02:59:14;;;;;;;;;;;14.00;94.60;;;;;;4348465;33;43510;-84
2022/05/04 03:04:38;;;;;;;;;;;14.00;94.70;;;;;;4347718;33;42884;-84
2022/05/04 03:07:13;;;;;;;;;;;13.90;94.70;;;;;;4334925;33;43011;-84
2022/05/04 03:09:43;;;;;;;;;;;13.90;94.70;;;;;;4348342;33;44870;-84
2022/05/04 03:12:12;;;;;;;;;;;13.90;94.70;;;;;;4334456;33;43481;-84
2022/05/04 03:14:40;;;;;;;;;;;13.90;94.70;;;;;;4347570;33;44168;-84
2022/05/04 03:17:18;;;;;;;;;;;13.90;94.80;;;;;;4347961;33;43056;-83
2022/05/04 03:19:50;;;;;;;;;;;13.90;94.70;;;;;;4334880;33;43903;-84
2022/05/04 03:22:29;;;;;;;;;;;13.90;94.70;;;;;;4347804;33;42962;-84
2022/05/04 03:25:05;;;;;;;;;;;13.90;94.60;;;;;;4348773;33;20036;-83
2022/05/04 03:27:33;;;;;;;;;;;13.80;94.40;;;;;;4347887;33;43892;-83
2022/05/04 03:30:09;;;;;;;;;;;13.80;94.30;;;;;;4347599;33;44109;-83
2022/05/04 03:32:36;;;;;;;;;;;13.80;94.30;;;;;;4334745;33;43674;-83
2022/05/04 03:35:04;;;;;;;;;;;13.80;94.30;;;;;;4347385;33;43799;-83
2022/05/04 03:37:36;;;;;;;;;;;13.80;94.30;;;;;;4347770;33;42957;-84
2022/05/04 03:40:07;;;;;;;;;;;13.70;94.40;;;;;;4347306;33;44216;-83
2022/05/04 03:42:43;;;;;;;;;;;13.70;94.30;;;;;;4334825;33;43922;-83
2022/05/04 03:45:16;;;;;;;;;;;13.70;94.20;;;;;;4334380;33;43690;-83
2022/05/04 03:47:48;;;;;;;;;;;13.70;94.30;;;;;;4347166;33;43203;-83
2022/05/04 03:50:33;;;;;;;;;;;13.60;94.20;;;;;;4347598;33;42970;-83
2022/05/04 03:53:02;;;;;;;;;;;13.60;94.30;;;;;;4334396;33;44334;-83
2022/05/04 03:55:33;;;;;;;;;;;13.60;94.40;;;;;;4348320;33;20370;-83
2022/05/04 03:58:12;;;;;;;;;;;13.60;94.30;;;;;;4334528;33;42677;-83
2022/05/04 04:00:39;;;;;;;;;;;13.60;94.40;;;;;;4347611;33;43363;-83
2022/05/04 04:03:14;;;;;;;;;;;13.50;94.40;;;;;;4346407;33;42853;-83
2022/05/04 04:05:50;;;;;;;;;;;13.60;94.50;;;;;;4333956;33;45834;-83
2022/05/04 04:08:22;;;;;;;;;;;13.50;94.50;;;;;;4334040;33;43067;-83
2022/05/04 04:10:57;;;;;;;;;;;13.50;94.50;;;;;;4334278;33;43868;-83
2022/05/04 04:13:27;;;;;;;;;;;13.50;94.50;;;;;;4333609;33;43020;-84
2022/05/04 04:15:57;;;;;;;;;;;13.50;94.50;;;;;;4347301;33;43197;-83
2022/05/04 04:18:32;;;;;;;;;;;13.50;94.60;;;;;;4333900;33;43054;-83
2022/05/04 04:23:55;;;;;;;;;;;13.40;94.60;;;;;;4347112;33;42719;-83
2022/05/04 04:26:24;;;;;;;;;;;13.40;94.60;;;;;;4347051;33;43367;-83
2022/05/04 04:29:00;;;;;;;;;;;13.40;94.70;;;;;;4334453;33;44121;-83
2022/05/04 04:31:32;;;;;;;;;;;13.40;94.70;;;;;;4347191;33;44212;-84
2022/05/04 04:34:06;;;;;;;;;;;13.40;94.80;;;;;;4347109;33;43187;-84
2022/05/04 04:36:43;;;;;;;;;;;13.40;94.80;;;;;;4346873;33;44759;-84
2022/05/04 04:39:18;;;;;;;;;;;13.40;94.80;;;;;;4347073;33;44018;-84
2022/05/04 04:41:51;;;;;;;;;;;13.40;94.80;;;;;;4347008;33;43743;-83
2022/05/04 04:44:24;;;;;;;;;;;13.40;94.80;;;;;;4334023;33;43311;-83
2022/05/04 04:46:57;;;;;;;;;;;13.30;94.80;;;;;;4346641;33;42303;-83
2022/05/04 04:49:26;;;;;;;;;;;13.40;94.90;;;;;;4346590;33;42084;-83
2022/05/04 04:51:53;;;;;;;;;;;13.30;94.90;;;;;;4333436;33;43903;-83
2022/05/04 04:54:23;;;;;;;;;;;13.30;94.90;;;;;;4333593;33;43839;-83
2022/05/04 04:56:50;;;;;;;;;;;13.30;94.90;;;;;;4346317;33;43568;-83
2022/05/04 04:59:17;;;;;;;;;;;13.30;94.90;;;;;;4346696;33;43199;-83
2022/05/04 05:01:50;;;;;;;;;;;13.30;95.00;;;;;;4333149;33;43476;-86
2022/05/04 05:04:25;;;;;;;;;;;13.30;95.00;;;;;;4346366;33;44104;-86
2022/05/04 05:06:58;;;;;;;;;;;13.30;95.10;;;;;;4346571;33;43478;-86
2022/05/04 05:09:25;;;;;;;;;;;13.30;95.10;;;;;;4346097;33;43482;-86
2022/05/04 05:11:55;;;;;;;;;;;13.30;95.10;;;;;;4333778;33;43211;-90
2022/05/04 05:17:19;;;;;;;;;;;13.20;95.30;;;;;;4346457;33;44335;-85
2022/05/04 05:19:49;;;;;;;;;;;13.20;95.40;;;;;;4333063;33;43356;-84
2022/05/04 05:22:17;;;;;;;;;;;13.30;95.50;;;;;;4333408;33;44271;-85
2022/05/04 05:24:50;;;;;;;;;;;13.20;95.50;;;;;;4346246;33;43940;-84
2022/05/04 05:27:22;;;;;;;;;;;13.20;95.60;;;;;;4347082;33;19989;-84
2022/05/04 05:29:55;;;;;;;;;;;13.20;95.60;;;;;;4332651;33;44118;-82
2022/05/04 05:32:30;;;;;;;;;;;13.20;95.60;;;;;;4332884;33;43404;-82
2022/05/04 05:35:04;;;;;;;;;;;13.20;95.70;;;;;;4346320;33;43685;-84
2022/05/04 05:37:32;;;;;;;;;;;13.20;95.70;;;;;;4346307;33;43346;-85
2022/05/04 05:40:05;;;;;;;;;;;13.20;95.80;;;;;;4332487;33;44280;-85
2022/05/04 05:42:35;;;;;;;;;;;13.20;95.80;;;;;;4332442;33;44207;-85
2022/05/04 05:45:06;;;;;;;;;;;13.20;95.80;;;;;;4332695;33;44188;-85
2022/05/04 05:47:35;;;;;;;;;;;13.10;95.80;;;;;;4332593;33;44393;-84
2022/05/04 05:50:03;;;;;;;;;;;13.10;96.20;;;;;;4346059;33;44212;-85
2022/05/04 05:52:36;;;;;;;;;;;13.10;95.90;;;;;;4332426;33;44921;-86
2022/05/04 05:55:04;;;;;;;;;;;13.10;96.00;;;;;;4345953;33;43950;-85
2022/05/04 05:57:33;;;;;;;;;;;13.10;95.90;;;;;;4333212;33;20480;-83
2022/05/04 06:00:03;;;;;;;;;;;13.10;95.80;;;;;;4332513;33;42758;-82
2022/05/04 06:02:33;;;;;;;;;;;13.10;95.70;;;;;;4345053;33;43157;-82
2022/05/04 06:05:00;;;;;;;;;;;13.10;95.80;;;;;;4345401;33;42513;-84
2022/05/04 06:07:30;;;;;;;;;;;13.00;96.00;;;;;;4345873;33;43261;-84
2022/05/04 06:10:02;;;;;;;;;;;13.10;95.90;;;;;;4332499;33;44128;-84
2022/05/04 06:12:29;;;;;;;;;;;13.00;95.80;;;;;;4345256;33;42784;-84
2022/05/04 06:14:56;;;;;;;;;;;13.10;95.90;;;;;;4345674;33;44245;-84
2022/05/04 06:17:29;;;;;;;;;;;13.10;95.70;;;;;;4332128;33;44219;-84
2022/05/04 06:19:59;;;;;;;;;;;13.00;95.70;;;;;;4332409;33;43262;-84
2022/05/04 06:22:28;;;;;;;;;;;13.00;95.80;;;;;;4345387;33;42906;-84
2022/05/04 06:24:55;;;;;;;;;;;13.00;95.90;;;;;;4345586;33;43234;-84
2022/05/04 06:27:28;;;;;;;;;;;13.00;96.00;;;;;;4345051;33;43243;-84
2022/05/04 06:35:32;;;;;;;;;;;13.00;95.50;;;;;;4345293;33;45130;-81
2022/05/04 06:38:05;;;;;;;;;;;12.90;95.40;;;;;;4332470;33;43238;-82
2022/05/04 06:40:32;;;;;;;;;;;12.90;95.20;;;;;;4331997;33;42399;-82
2022/05/04 06:43:08;;;;;;;;;;;12.80;95.10;;;;;;4332155;33;43926;-82
2022/05/04 06:45:44;;;;;;;;;;;12.80;95.40;;;;;;4331860;33;44269;-82
2022/05/04 06:48:14;;;;;;;;;;;12.80;95.40;;;;;;4331483;33;42497;-82
2022/05/04 06:50:46;;;;;;;;;;;12.80;95.50;;;;;;4345328;33;43243;-82
2022/05/04 06:53:19;;;;;;;;;;;12.80;95.40;;;;;;4344762;33;43085;-83
2022/05/04 06:55:54;;;;;;;;;;;12.80;95.40;;;;;;4331830;33;42751;-82
2022/05/04 06:58:27;;;;;;;;;;;12.80;95.60;;;;;;4331786;33;42120;-82
2022/05/04 07:00:54;;;;;;;;;;;12.80;95.70;;;;;;4331796;33;44231;-83
2022/05/04 07:03:26;;;;;;;;;;;12.80;95.60;;;;;;4331331;33;42550;-82
2022/05/04 07:05:53;;;;;;;;;;;12.80;95.60;;;;;;4344978;33;42933;-83
2022/05/04 07:08:20;;;;;;;;;;;12.80;95.70;;;;;;4331697;33;44316;-83
2022/05/04 07:10:51;;;;;;;;;;;12.80;95.80;;;;;;4344643;33;44179;-83
2022/05/04 07:13:23;;;;;;;;;;;12.80;95.80;;;;;;4344897;33;43184;-83
2022/05/04 07:15:55;;;;;;;;;;;12.80;95.90;;;;;;4344734;33;43187;-83
2022/05/04 07:18:25;;;;;;;;;;;12.80;96.00;;;;;;4331329;33;43202;-83
2022/05/04 07:20:52;;;;;;;;;;;12.80;96.00;;;;;;4345134;33;42740;-83
2022/05/04 07:23:22;;;;;;;;;;;12.80;96.00;;;;;;4331331;33;42773;-83
2022/05/04 07:25:52;;;;;;;;;;;12.80;95.90;;;;;;4331664;33;44120;-83
2022/05/04 07:28:24;;;;;;;;;;;12.80;96.00;;;;;;4344514;33;43835;-83
2022/05/04 07:30:52;;;;;;;;;;;12.80;96.10;;;;;;4344728;33;42986;-83
2022/05/04 07:33:27;;;;;;;;;;;12.90;96.30;;;;;;4344768;33;43785;-83
2022/05/04 07:36:03;;;;;;;;;;;12.90;96.30;;;;;;4344865;33;43498;-83
2022/05/04 07:38:35;;;;;;;;;;;12.90;96.30;;;;;;4344657;33;43637;-83
2022/05/04 07:43:52;;;;;;;;;;;12.90;96.30;;;;;;4347488;33;44006;-83
2022/05/04 07:46:22;;;;;;;;;;;12.90;96.10;;;;;;4334488;33;43143;-82
2022/05/04 07:48:52;;;;;;;;;;;12.90;96.00;;;;;;4347396;33;42850;-83
2022/05/04 07:51:22;;;;;;;;;;;12.90;96.20;;;;;;4347612;33;43762;-83
2022/05/04 07:53:52;;;;;;;;;;;12.90;96.30;;;;;;4334684;33;43317;-83
2022/05/04 07:56:21;;;;;;;;;;;12.90;96.50;;;;;;4347229;33;43047;-83
2022/05/04 07:58:51;;;;;;;;;;;12.90;96.20;;;;;;4347328;33;42993;-83
2022/05/04 08:04:17;;;;;;;;;;;13.00;96.50;;;;;;4347099;33;42510;-83
2022/05/04 08:06:46;;;;;;;;;;;13.00;96.30;;;;;;4347497;33;43405;-83
2022/05/04 08:09:17;;;;;;;;;;;13.00;96.30;;;;;;4347462;33;44232;-83
2022/05/04 08:11:49;;;;;;;;;;;13.00;96.40;;;;;;4347242;33;43940;-82
2022/05/04 08:14:16;;;;;;;;;;;13.00;96.40;;;;;;4333922;33;43994;-83
2022/05/04 08:16:46;;;;;;;;;;;13.00;96.50;;;;;;4333566;33;43177;-83
2022/05/04 08:19:19;;;;;;;;;;;13.10;96.50;;;;;;4334546;33;43896;-82
2022/05/04 08:21:48;;;;;;;;;;;13.10;96.30;;;;;;4346847;33;43478;-82
2022/05/04 08:24:18;;;;;;;;;;;13.10;96.40;;;;;;4346697;33;43674;-83
2022/05/04 08:26:48;;;;;;;;;;;13.10;96.50;;;;;;4346651;33;43219;-83
2022/05/04 08:29:17;;;;;;;;;;;13.10;96.50;;;;;;4347103;33;42617;-82
2022/05/04 08:31:49;;;;;;;;;;;13.20;96.40;;;;;;4347661;33;20036;-82
2022/05/04 08:34:25;;;;;;;;;;;13.20;96.40;;;;;;4346858;33;43227;-84
2022/05/04 08:36:58;;;;;;;;;;;13.20;96.50;;;;;;4347121;33;43198;-83
2022/05/04 08:39:28;;;;;;;;;;;13.20;96.70;;;;;;4347117;33;43925;-83
2022/05/04 08:42:00;;;;;;;;;;;13.20;96.60;;;;;;4346535;33;44789;-83
2022/05/04 08:44:28;;;;;;;;;;;13.20;96.60;;;;;;4347051;33;43892;-83
2022/05/04 08:46:57;;;;;;;;;;;13.20;96.50;;;;;;4346587;33;43896;-84
2022/05/04 08:49:29;;;;;;;;;;;13.20;96.40;;;;;;4346087;33;43487;-83
2022/05/04 08:51:57;;;;;;;;;;;13.20;96.40;;;;;;4346329;33;42618;-83
2022/05/04 08:54:33;;;;;;;;;;;13.20;96.40;;;;;;4346296;33;43318;-84
2022/05/04 08:57:03;;;;;;;;;;;13.20;96.40;;;;;;4346568;33;42488;-84
2022/05/04 08:59:33;;;;;;;;;;;13.30;96.40;;;;;;4346174;33;42636;-84
2022/05/04 09:02:00;;;;;;;;;;;13.30;96.40;;;;;;4331178;33;20428;-83
2022/05/04 09:04:29;;;;;;;;;;;13.30;96.60;;;;;;4331699;33;43036;-83
2022/05/04 09:07:01;;;;;;;;;;;13.30;96.70;;;;;;4330306;33;42839;-83
2022/05/04 09:09:33;;;;;;;;;;;13.30;96.70;;;;;;4331966;33;46088;-83
2022/05/04 09:12:04;;;;;;;;;;;13.30;96.60;;;;;;4331937;33;43879;-83
2022/05/04 09:14:35;;;;;;;;;;;13.30;96.60;;;;;;4330611;33;43978;-83
2022/05/04 09:17:08;;;;;;;;;;;13.40;96.60;;;;;;4330146;33;44658;-83
2022/05/04 09:19:37;;;;;;;;;;;13.40;96.50;;;;;;4331257;33;43849;-84
2022/05/04 09:22:17;;;;;;;;;;;13.40;96.50;;;;;;4331695;33;43522;-84
2022/05/04 09:24:47;;;;;;;;;;;13.40;96.50;;;;;;4330360;33;43192;-84
2022/05/04 09:27:16;;;;;;;;;;;13.40;96.50;;;;;;4329903;33;42909;-84
2022/05/04 09:29:48;;;;;;;;;;;13.50;96.50;;;;;;4331488;33;43387;-85
2022/05/04 09:32:21;;;;;;;;;;;13.50;96.40;;;;;;4332038;33;21000;-85
2022/05/04 09:34:54;;;;;;;;;;;13.50;96.30;;;;;;4330185;33;43844;-85
2022/05/04 09:45:51;;;;;;;;;;;13.60;96.20;;;;;;4331289;33;46079;-86
2022/05/04 09:48:26;;;;;;;;;;;13.60;96.20;;;;;;4331158;33;45083;-86
2022/05/04 09:50:56;;;;;;;;;;;13.60;96.30;;;;;;4331345;33;42815;-87
2022/05/04 09:53:27;;;;;;;;;;;13.60;96.30;;;;;;4330930;33;42361;-86
2022/05/04 09:55:55;;;;;;;;;;;13.60;96.20;;;;;;4330631;33;44350;-87
2022/05/04 09:58:27;;;;;;;;;;;13.60;96.20;;;;;;4329653;33;43214;-87
2022/05/04 10:00:55;;;;;;;;;;;13.60;96.20;;;;;;4331226;33;44557;-87
2022/05/04 10:03:24;;;;;;;;;;;13.60;96.20;;;;;;4342563;33;44163;-87
2022/05/04 10:05:53;;;;;;;;;;;13.60;96.10;;;;;;4332003;33;44905;-87
2022/05/04 10:08:23;;;;;;;;;;;13.60;96.10;;;;;;4345218;33;42610;-88
2022/05/04 10:10:52;;;;;;;;;;;13.60;96.10;;;;;;4345692;33;43483;-87
2022/05/04 10:13:20;;;;;;;;;;;13.70;96.10;;;;;;4332006;33;42834;-88
2022/05/04 10:15:50;;;;;;;;;;;13.60;96.00;;;;;;4345035;33;44657;-87
2022/05/04 10:18:20;;;;;;;;;;;13.70;95.90;;;;;;4345070;33;44541;-88
2022/05/04 10:20:55;;;;;;;;;;;13.70;96.00;;;;;;4331879;33;43299;-88
2022/05/04 10:23:25;;;;;;;;;;;13.70;96.00;;;;;;4332540;33;44260;-88
2022/05/04 10:25:58;;;;;;;;;;;13.70;95.80;;;;;;4345152;33;43995;-88
2022/05/04 10:28:25;;;;;;;;;;;13.70;95.90;;;;;;4345457;33;45684;-87
2022/05/04 10:30:55;;;;;;;;;;;13.80;96.00;;;;;;4345381;33;42355;-87
2022/05/04 10:33:30;;;;;;;;;;;13.70;96.00;;;;;;4333195;33;20001;-87
2022/05/04 10:36:12;;;;;;;;;;;13.80;96.00;;;;;;4345556;33;43246;-87
2022/05/04 10:38:42;;;;;;;;;;;13.80;96.00;;;;;;4345133;33;43307;-88
2022/05/04 10:41:12;;;;;;;;;;;13.80;96.10;;;;;;4344929;33;43515;-87
2022/05/04 10:43:47;;;;;;;;;;;13.80;95.90;;;;;;4345234;33;43456;-86
2022/05/04 10:46:17;;;;;;;;;;;13.80;95.70;;;;;;4331840;33;42327;-87
2022/05/04 10:48:50;;;;;;;;;;;13.90;95.70;;;;;;4345271;33;43993;-87
2022/05/04 10:51:19;;;;;;;;;;;13.90;95.60;;;;;;4331843;33;43925;-88
2022/05/04 10:53:49;;;;;;;;;;;13.90;95.50;;;;;;4344889;33;42818;-87
2022/05/04 10:56:17;;;;;;;;;;;13.90;95.50;;;;;;4345058;33;43732;-87
2022/05/04 10:58:52;;;;;;;;;;;13.90;95.40;;;;;;4345063;33;44616;-88
2022/05/04 11:01:31;;;;;;;;;;;13.90;95.30;;;;;;4345234;33;42616;-87
2022/05/04 11:04:20;;;;;;;;;;;14.00;95.50;;;;;;4332692;33;20487;-88
2022/05/04 11:07:06;;;;;;;;;;;14.00;95.20;;;;;;4345294;33;46013;-88
2022/05/04 11:09:37;;;;;;;;;;;14.00;94.90;;;;;;4344729;33;44282;-88
2022/05/04 11:12:05;;;;;;;;;;;14.00;94.80;;;;;;4344895;33;44147;-88
2022/05/04 11:14:34;;;;;;;;;;;14.00;95.30;;;;;;4347364;33;44764;-88
2022/05/04 11:17:05;;;;;;;;;;;14.00;95.00;;;;;;4348069;33;43913;-88
2022/05/04 11:19:32;;;;;;;;;;;14.10;94.70;;;;;;4348155;33;42679;-88
2022/05/04 11:22:00;;;;;;;;;;;14.10;94.80;;;;;;4334354;33;44156;-87
2022/05/04 11:24:30;;;;;;;;;;;14.10;94.90;;;;;;4347498;33;43013;-88
2022/05/04 11:27:00;;;;;;;;;;;14.10;94.60;;;;;;4334682;33;44130;-88
2022/05/04 11:29:33;;;;;;;;;;;14.10;94.50;;;;;;4348278;33;44276;-88
2022/05/04 11:32:01;;;;;;;;;;;14.10;94.70;;;;;;4334651;33;44855;-88
2022/05/04 11:34:33;;;;;;;;;;;14.20;94.70;;;;;;4336183;33;20039;-88
2022/05/04 11:37:08;;;;;;;;;;;14.20;94.50;;;;;;4334824;33;44751;-89
2022/05/04 11:39:36;;;;;;;;;;;14.20;94.50;;;;;;4335135;33;44721;-88
2022/05/04 11:42:05;;;;;;;;;;;14.20;94.20;;;;;;4347682;33;44630;-88
2022/05/04 11:44:35;;;;;;;;;;;14.30;94.20;;;;;;4347716;33;43364;-89
2022/05/04 11:47:03;;;;;;;;;;;14.30;93.90;;;;;;4334803;33;42772;-88
2022/05/04 11:49:34;;;;;;;;;;;14.30;94.10;;;;;;4335082;33;45837;-88
2022/05/04 11:52:04;;;;;;;;;;;14.30;93.40;;;;;;4349186;33;43245;-87
2022/05/04 11:54:33;;;;;;;;;;;14.30;93.40;;;;;;4348672;33;43933;-88
2022/05/04 11:57:15;;;;;;;;;;;14.40;93.70;;;;;;4335647;33;45183;-88
2022/05/04 11:59:51;;;;;;;;;;;14.40;93.80;;;;;;4348599;33;43965;-87
2022/05/04 12:02:24;;;;;;;;;;;14.40;94.00;;;;;;4335759;33;44295;-86
2022/05/04 12:04:56;;;;;;;;;;;14.40;93.90;;;;;;4348903;33;43856;-87
2022/05/04 12:07:30;;;;;;;;;;;14.40;94.20;;;;;;4349072;33;44927;-88
2022/05/04 12:10:03;;;;;;;;;;;14.50;94.20;;;;;;4347419;33;45709;-87
2022/05/04 12:12:35;;;;;;;;;;;14.50;94.30;;;;;;4334184;33;42991;-86
2022/05/04 12:15:05;;;;;;;;;;;14.50;94.50;;;;;;4334173;33;43344;-86
2022/05/04 12:17:44;;;;;;;;;;;14.60;94.50;;;;;;4333678;33;42265;-86
2022/05/04 12:20:13;;;;;;;;;;;14.60;94.20;;;;;;4347201;33;44844;-87
2022/05/04 12:22:43;;;;;;;;;;;14.60;94.20;;;;;;4333998;33;42805;-88
2022/05/04 12:25:13;;;;;;;;;;;14.60;94.20;;;;;;4333058;33;44036;-88
2022/05/04 12:27:42;;;;;;;;;;;14.70;94.30;;;;;;4346760;33;43906;-87
2022/05/04 12:33:14;;;;;;;;;;;14.70;93.70;;;;;;4347119;33;45758;-88
2022/05/04 12:35:49;;;;;;;;;;;14.70;93.70;;;;;;4347236;33;44779;-89
2022/05/04 12:38:20;;;;;;;;;;;14.80;93.60;;;;;;4333370;33;43288;-87
2022/05/04 12:40:50;;;;;;;;;;;14.80;93.70;;;;;;4333725;33;43067;-88
2022/05/04 12:43:34;;;;;;;;;;;14.80;93.60;;;;;;4347095;33;43577;-87
2022/05/04 12:46:16;;;;;;;;;;;14.90;93.70;;;;;;4333500;33;44064;-87
2022/05/04 12:48:50;;;;;;;;;;;14.90;93.40;;;;;;4346958;33;44164;-87
2022/05/04 12:51:20;;;;;;;;;;;14.90;93.70;;;;;;4333150;33;42958;-87
2022/05/04 12:53:48;;;;;;;;;;;14.90;93.60;;;;;;4346901;33;45195;-87
2022/05/04 12:59:12;;;;;;;;;;;15.00;93.30;;;;;;4346941;33;44041;-86
2022/05/04 13:01:42;;;;;;;;;;;15.00;93.30;;;;;;4333576;33;43800;-86
2022/05/04 13:04:12;;;;;;;;;;;15.10;93.30;;;;;;4346955;33;43266;-88
2022/05/04 13:06:43;;;;;;;;;;;15.10;93.00;;;;;;4346880;33;33330;-86
2022/05/04 13:09:14;;;;;;;;;;;15.10;93.20;;;;;;4333073;33;43447;-86
2022/05/04 13:11:43;;;;;;;;;;;15.10;93.00;;;;;;4332797;33;44208;-86
2022/05/04 13:14:17;;;;;;;;;;;15.20;92.90;;;;;;4332798;33;43575;-87
2022/05/04 13:16:46;;;;;;;;;;;15.20;92.70;;;;;;4333289;33;42525;-87
2022/05/04 13:19:17;;;;;;;;;;;15.20;92.40;;;;;;4346552;33;45745;-86
2022/05/04 13:21:45;;;;;;;;;;;15.20;92.70;;;;;;4346094;33;43286;-86
2022/05/04 13:24:15;;;;;;;;;;;15.30;92.60;;;;;;4346535;33;44777;-87
2022/05/04 13:26:42;;;;;;;;;;;15.30;92.80;;;;;;4332781;33;43492;-86
2022/05/04 13:29:14;;;;;;;;;;;15.40;92.80;;;;;;4332818;33;43514;-86
2022/05/04 13:31:50;;;;;;;;;;;15.40;92.70;;;;;;4345882;33;42332;-86
2022/05/04 13:34:17;;;;;;;;;;;15.40;92.40;;;;;;4346409;33;44022;-87
2022/05/04 13:36:53;;;;;;;;;;;15.40;92.60;;;;;;4346507;33;19997;-87
2022/05/04 13:39:29;;;;;;;;;;;15.50;92.40;;;;;;4332942;33;44168;-88
2022/05/04 13:41:59;;;;;;;;;;;15.50;92.30;;;;;;4332499;33;43093;-87
2022/05/04 13:44:26;;;;;;;;;;;15.50;92.30;;;;;;4345660;33;43995;-86
2022/05/04 13:47:02;;;;;;;;;;;15.50;92.60;;;;;;4346122;33;44783;-88
2022/05/04 13:49:34;;;;;;;;;;;15.60;92.50;;;;;;4346288;33;44209;-86
2022/05/04 13:54:50;;;;;;;;;;;15.60;92.40;;;;;;4345619;33;42994;-86
2022/05/04 13:57:17;;;;;;;;;;;15.70;92.40;;;;;;4345438;33;43234;-87
2022/05/04 13:59:49;;;;;;;;;;;15.70;91.80;;;;;;4332399;33;43256;-86
2022/05/04 14:02:18;;;;;;;;;;;15.70;91.60;;;;;;4331949;33;44608;-87
2022/05/04 14:04:45;;;;;;;;;;;15.80;91.50;;;;;;4332652;33;44033;-89
2022/05/04 14:07:15;;;;;;;;;;;15.80;91.20;;;;;;4333040;33;20048;-83
2022/05/04 14:09:46;;;;;;;;;;;15.80;91.10;;;;;;4345041;33;42787;-81
2022/05/04 14:12:13;;;;;;;;;;;15.80;91.70;;;;;;4332132;33;43289;-83
2022/05/04 14:15:01;;;;;;;;;;;15.90;91.60;;;;;;4332516;33;43514;-83
2022/05/04 14:17:29;;;;;;;;;;;15.90;91.60;;;;;;4345750;33;44349;-84
2022/05/04 14:20:01;;;;;;;;;;;15.90;91.50;;;;;;4332396;33;44232;-84
2022/05/04 14:22:31;;;;;;;;;;;16.00;92.10;;;;;;4345260;33;43186;-84
2022/05/04 14:25:12;;;;;;;;;;;15.90;91.30;;;;;;4332655;33;44186;-84
2022/05/04 14:27:43;;;;;;;;;;;16.00;91.00;;;;;;4331683;33;44396;-84
2022/05/04 14:30:16;;;;;;;;;;;16.00;91.40;;;;;;4345354;33;43936;-80
2022/05/04 14:32:46;;;;;;;;;;;16.00;91.40;;;;;;4332351;33;43962;-78
2022/05/04 14:35:19;;;;;;;;;;;16.10;91.50;;;;;;4331838;33;43466;-86
2022/05/04 14:37:46;;;;;;;;;;;16.10;91.50;;;;;;4346374;33;20040;-87
2022/05/04 14:40:18;;;;;;;;;;;16.10;91.20;;;;;;4345241;33;43588;-86
2022/05/04 14:42:46;;;;;;;;;;;16.10;91.20;;;;;;4332150;33;43402;-86
2022/05/04 14:45:16;;;;;;;;;;;16.20;91.20;;;;;;4345225;33;45081;-87
2022/05/04 14:47:49;;;;;;;;;;;16.20;91.20;;;;;;4344920;33;45911;-86
2022/05/04 14:50:19;;;;;;;;;;;16.30;91.20;;;;;;4331934;33;45431;-84
2022/05/04 14:52:49;;;;;;;;;;;16.30;91.40;;;;;;4331624;33;43119;-87
2022/05/04 14:55:16;;;;;;;;;;;16.30;91.10;;;;;;4345180;33;43139;-87
2022/05/04 14:57:45;;;;;;;;;;;16.30;91.10;;;;;;4344759;33;43909;-87
2022/05/04 15:00:15;;;;;;;;;;;16.30;90.90;;;;;;4331668;33;43487;-86
2022/05/04 15:05:36;;;;;;;;;;;16.40;91.10;;;;;;4321812;33;44093;-87
2022/05/04 15:08:09;;;;;;;;;;;16.40;90.40;;;;;;4333215;33;20036;-86
2022/05/04 15:10:38;;;;;;;;;;;16.40;90.60;;;;;;4344937;33;42707;-88
2022/05/04 15:13:05;;;;;;;;;;;16.40;90.20;;;;;;4344674;33;43093;-80
2022/05/04 15:15:41;;;;;;;;;;;16.50;90.60;;;;;;4331951;33;43109;-85
2022/05/04 15:18:08;;;;;;;;;;;16.50;90.30;;;;;;4331784;33;43802;-85
2022/05/04 15:20:41;;;;;;;;;;;16.50;90.60;;;;;;4345044;33;43959;-87
2022/05/04 15:23:10;;;;;;;;;;;16.60;90.70;;;;;;4331988;33;45999;-86